Latest Coastal Weather Observations for Rhyll

IDV60701

Issued at 8:11 am EST Thursday 30 July 2015 (issued every 10 minutes, with the page automatically refreshed every 10 minutes)

About coastal observations | Map of coastal stations | Coastal observations for VIC | Marine services | Other Formats
Station Details ID: 086373 Name: RHYLL Lat: -38.46 Lon: 145.31 Height: 13.4 m
Data from the previous 72 hours. | See also: Recent months at Rhyll
Date/Time
EST
Temp

°C
Wind Pressure Rain
since 9am
mm
Weather Cloud Vis
km
Sea
Height
m
Swell
Dir
 
Speed
knots
Gust
knots
hPa Trend Height
m
Period
s
Dir
30/08:00am 9.3 NNW 17 22 1020.0 - 0.0 - - - - - - -
30/07:30am 8.9 N 14 19 1020.2 - 0.0 - - - - - - -
30/07:00am 8.7 NNW 14 19 1020.4 - 0.0 - - - - - - -
30/06:30am 8.1 NNW 12 15 1020.7 - 0.0 - - - - - - -
30/06:00am 8.5 NNW 14 18 1021.0 - 0.0 - - - - - - -
30/05:30am 8.3 NNW 14 18 1021.2 - 0.0 - - - - - - -
30/05:00am 8.0 NNW 11 14 1021.7 - 0.0 - - - - - - -
30/04:30am 7.7 N 9 12 1022.0 - 0.0 - - - - - - -
30/04:00am 8.1 N 14 17 1022.0 - 0.0 - - - - - - -
30/03:30am 7.9 NNW 13 16 1022.5 - 0.0 - - - - - - -
30/03:00am 8.0 NNW 12 15 1023.1 - 0.0 - - - - - - -
30/02:30am 8.4 N 12 15 1023.6 - 0.0 - - - - - - -
30/02:00am 8.3 N 12 15 1024.0 - 0.0 - - - - - - -
30/01:30am 8.6 NNW 13 17 1024.6 - 0.0 - - - - - - -
30/01:00am 8.8 N 11 14 1024.7 - 0.0 - - - - - - -
30/12:30am 9.1 N 12 14 1025.4 - 0.0 - - - - - - -
30/12:00am 9.3 N 11 14 1026.0 - 0.0 - - - - - - -
 
Date/Time
EST
Temp

°C
Wind Pressure Rain
since 9am
mm
Weather Cloud Vis
km
Sea
Height
m
Swell
Dir
 
Speed
knots
Gust
knots
hPa Trend Height
m
Period
s
Dir
29/11:30pm 9.2 N 11 14 1026.4 - 0.0 - - - - - - -
29/11:00pm 9.6 N 12 15 1026.6 - 0.0 - - - - - - -
29/10:30pm 9.8 N 11 14 1026.7 - 0.0 - - - - - - -
29/10:00pm 10.1 N 13 16 1027.1 - 0.0 - - - - - - -
29/09:30pm 10.2 N 16 20 1027.1 - 0.0 - - - - - - -
29/09:00pm 10.2 N 15 19 1027.3 - 0.0 - - - - - - -
29/08:30pm 10.2 N 15 17 1027.4 - 0.0 - - - - - - -
29/08:00pm 10.2 N 14 17 1027.3 - 0.0 - - - - - - -
29/07:30pm 10.1 N 11 14 1027.6 - 0.0 - - - - - - -
29/07:00pm 10.4 N 10 12 1027.5 - 0.0 - - - - - - -
29/06:30pm 10.4 N 8 10 1027.6 - 0.0 - - - - - - -
29/06:00pm 10.7 NNW 7 9 1027.8 - 0.0 - - - - - - -
29/05:30pm 11.0 NNW 9 11 1027.7 - 0.0 - - - - - - -
29/05:00pm 11.0 NNW 9 12 1027.6 - 0.0 - - - - - - -
29/04:30pm 11.3 NNW 13 16 1027.6 - 0.0 - - - - - - -
29/04:00pm 11.7 NNW 11 15 1028.0 - 0.0 - - - - - - -
29/03:30pm 11.9 NNW 3 5 1028.4 - 0.0 - - - - - - -
29/03:00pm 11.8 NNW 4 7 1028.6 - 0.0 - - - - - - -
29/02:30pm 12.1 NW 4 8 1028.9 - 0.0 - - - - - - -
29/02:00pm 12.3 NW 5 9 1029.3 - 0.0 - - - - - - -
29/01:30pm 12.6 NNW 7 11 1029.7 - 0.0 - - - - - - -
29/01:00pm 12.4 NNW 6 10 1029.9 - 0.0 - - - - - - -
29/12:30pm 12.4 NW 8 13 1030.6 - 0.0 - - - - - - -
29/12:00pm 12.2 NNW 7 10 1031.4 - 0.0 - - - - - - -
29/11:30am 12.0 NNW 8 10 1031.8 - 0.0 - - - - - - -
29/11:00am 11.3 NNW 6 8 1032.1 - 0.0 - - - - - - -
29/10:30am 11.1 NNW 8 10 1032.5 - 0.0 - - - - - - -
29/10:00am 10.5 NNW 8 11 1032.6 - 0.0 - - - - - - -
29/09:30am 10.2 NNW 5 7 1032.8 - 0.0 - - - - - - -
29/09:00am 10.0 NNW 4 6 1032.8 - 0.4 - - - - - - -
29/08:30am 9.0 NNW 1 3 1033.0 - 0.4 - - - - - - -
29/08:00am 7.8 NW 1 3 1032.8 - 0.4 - - - - - - -
29/07:30am 8.1 NNW 2 3 1032.6 - 0.4 - - - - - - -
29/07:00am 8.4 NNW 3 4 1032.6 - 0.4 - - - - - - -
29/06:30am 8.3 NNW 3 4 1032.5 - 0.4 - - - - - - -
29/06:00am 8.7 NNW 2 4 1032.5 - 0.4 - - - - - - -
29/05:30am 9.3 NNW 3 4 1032.2 - 0.4 - - - - - - -
29/05:00am 9.2 NW 2 4 1032.2 - 0.4 - - - - - - -
29/04:30am 9.2 NNW 3 4 1032.4 - 0.4 - - - - - - -
29/04:00am 9.1 N 2 4 1032.2 - 0.4 - - - - - - -
29/03:30am 9.0 NW 3 5 1032.5 - 0.4 - - - - - - -
29/03:00am 9.0 NNW 1 3 1032.6 - 0.4 - - - - - - -
29/02:30am 9.1 NNW 4 7 1033.0 - 0.4 - - - - - - -
29/02:00am 9.2 NNW 4 8 1032.8 - 0.4 - - - - - - -
29/01:30am 9.1 N 6 8 1032.6 - 0.4 - - - - - - -
29/01:00am 9.5 NNW 4 6 1032.9 - 0.4 - - - - - - -
29/12:30am 9.6 NNW 4 7 1033.1 - 0.4 - - - - - - -
29/12:00am 9.5 NNW 3 5 1033.3 - 0.4 - - - - - - -
 
Date/Time
EST
Temp

°C
Wind Pressure Rain
since 9am
mm
Weather Cloud Vis
km
Sea
Height
m
Swell
Dir
 
Speed
knots
Gust
knots
hPa Trend Height
m
Period
s
Dir
28/11:30pm 9.5 NNW 2 3 1033.3 - 0.4 - - - - - - -
28/11:00pm 9.4 NW 2 3 1033.5 - 0.4 - - - - - - -
28/10:30pm 9.7 WNW 1 3 1033.7 - 0.4 - - - - - - -
28/10:00pm 9.7 WNW 2 3 1033.8 - 0.4 - - - - - - -
28/09:30pm 9.5 W 3 4 1033.9 - 0.4 - - - - - - -
28/09:00pm 9.8 W 3 5 1034.0 - 0.4 Recent precip. - - - - - -
28/08:30pm 9.6 W 3 5 1033.9 - 0.0 - - - - - - -
28/08:00pm 9.4 NW 2 3 1033.8 - 0.0 - - - - - - -
28/07:30pm 9.4 NW 2 3 1033.8 - 0.0 - - - - - - -
28/07:00pm 9.5 NNW 1 2 1033.7 - 0.0 - - - - - - -
28/06:30pm 9.7 WNW 2 3 1033.6 - 0.0 - - - - - - -
28/06:00pm 9.9 W 2 4 1033.4 - 0.0 - - - - - - -
28/05:30pm 10.4 W 2 4 1033.4 - 0.0 - - - - - - -
28/05:00pm 11.2 WNW 3 7 1033.1 - 0.0 - - - - - - -
28/04:30pm 11.7 WNW 5 9 1033.2 - 0.0 - - - - - - -
28/04:00pm 12.2 W 5 12 1033.1 - 0.0 - - - - - - -
28/03:30pm 12.3 WNW 4 9 1033.1 - 0.0 - - - - - - -
28/03:00pm 12.6 NW 5 9 1033.1 - 0.0 - - - - - - -
28/02:30pm 12.2 NNW 6 11 1032.9 - 0.0 - - - - - - -
28/02:00pm 12.3 NW 6 11 1033.0 - 0.0 - - - - - - -
28/01:30pm 12.2 NW 5 9 1033.2 - 0.0 - - - - - - -
28/01:00pm 11.9 NW 5 8 1033.4 - 0.0 - - - - - - -
28/12:30pm 11.3 NNW 6 8 1033.8 - 0.0 - - - - - - -
28/12:00pm 11.0 NNW 5 8 1034.1 - 0.0 - - - - - - -
28/11:30am 10.5 NW 4 9 1034.6 - 0.0 - - - - - - -
28/11:00am 10.7 NW 4 9 1034.6 - 0.0 - - - - - - -
28/10:30am 10.1 NW 5 9 1034.9 - 0.0 - - - - - - -
28/10:00am 9.9 NW 4 9 1034.3 - 0.0 - - - - - - -
28/09:30am 9.9 WNW 4 7 1034.3 - 0.0 - - - - - - -
28/09:00am 9.8 WNW 5 7 1034.1 - 9.6 Recent precip. - - - - - -
28/08:30am 9.4 WNW 4 8 1033.7 - 9.4 - - - - - - -
28/08:00am 9.2 NW 3 6 1033.4 - 9.2 - - - - - - -
28/07:30am 9.4 WNW 3 5 1033.0 - 9.2 - - - - - - -
28/07:00am 9.5 W 4 8 1032.6 - 9.2 - - - - - - -
28/06:30am 9.6 WSW 6 14 1032.2 - 9.2 - - - - - - -
28/06:00am 9.7 W 4 7 1031.9 - 9.2 Recent precip. - - - - - -
28/05:30am 9.7 W 4 7 1031.5 - 9.2 - - - - - - -
28/05:00am 10.0 WSW 5 9 1031.3 - 9.0 - - - - - - -
28/04:30am 9.4 WNW 3 4 1030.9 - 8.8 - - - - - - -
28/04:00am 9.4 WNW 4 8 1030.8 - 8.8 - - - - - - -
28/03:30am 9.3 WNW 5 8 1030.8 - 8.0 - - - - - - -
28/03:00am 9.3 WNW 5 9 1030.7 - 7.6 Rain - - - - - -
28/02:30am 9.4 WNW 5 9 1030.6 - 6.6 - - - - - - -
28/02:00am 9.4 W 5 7 1030.3 - 6.6 - - - - - - -
28/01:30am 9.2 W 4 8 1030.0 - 6.2 - - - - - - -
28/01:00am 9.0 WNW 4 7 1030.0 - 5.2 - - - - - - -
28/12:30am 9.0 WNW 4 8 1030.0 - 4.6 - - - - - - -
28/12:00am 9.2 WNW 5 8 1029.9 - 3.6 Recent precip. - - - - - -
 
Date/Time
EST
Temp

°C
Wind Pressure Rain
since 9am
mm
Weather Cloud Vis
km
Sea
Height
m
Swell
Dir
 
Speed
knots
Gust
knots
hPa Trend Height
m
Period
s
Dir
27/11:30pm 9.1 WNW 5 9 1030.1 - 3.6 - - - - - - -
27/11:00pm 9.1 NW 3 6 1030.0 - 3.0 - - - - - - -
27/10:30pm 9.4 NW 4 7 1030.0 - 3.0 - - - - - - -
27/10:00pm 9.7 WNW 2 6 1030.0 - 2.8 - - - - - - -
27/09:30pm 10.0 WNW 5 9 1029.9 - 2.8 - - - - - - -
27/09:00pm 10.1 W 5 10 1029.8 - 2.8 - - - - - - -
27/08:30pm 10.0 W 6 10 1029.7 - 2.8 - - - - - - -
27/08:00pm 10.0 W 5 9 1029.7 - 2.8 - - - - - - -
27/07:30pm 10.4 W 6 13 1029.6 - 2.6 - - - - - - -
27/07:00pm 10.1 W 6 10 1029.3 - 2.6 - - - - - - -
27/06:30pm 9.8 W 7 13 1029.1 - 2.6 - - - - - - -
27/06:00pm 10.8 W 8 15 1028.7 - 2.4 - - - - - - -
27/05:30pm 10.8 WSW 8 14 1028.4 - 2.4 - - - - - - -
27/05:00pm 10.8 W 9 14 1028.1 - 2.4 - - - - - - -
27/04:30pm 11.4 WSW 7 12 1027.9 - 2.4 - - - - - - -
27/04:00pm 10.7 W 6 13 1027.6 - 2.4 - - - - - - -
27/03:30pm 10.3 W 8 13 1027.4 - 2.4 - - - - - - -
27/03:00pm 9.8 WSW 9 25 1027.2 - 2.4 Rain - - - - - -
27/02:30pm 11.3 W 7 12 1026.8 - 1.6 - - - - - - -
27/02:00pm 10.2 W 6 13 1026.8 - 1.6 - - - - - - -
27/01:30pm 11.2 W 7 12 1026.7 - 1.4 - - - - - - -
27/01:00pm 10.8 W 9 20 1026.8 - 1.4 - - - - - - -
27/12:30pm 9.6 W 7 12 1027.0 - 1.4 - - - - - - -
27/12:00pm 10.1 W 7 15 1027.2 - 1.4 Recent precip. - - - - - -
27/11:30am 9.3 W 5 11 1027.5 - 1.4 - - - - - - -
27/11:00am 9.3 NW 5 11 1027.2 - 1.2 - - - - - - -
27/10:30am 8.8 W 5 11 1027.2 - 1.0 - - - - - - -
27/10:00am 8.8 W 5 12 1027.0 - 1.0 - - - - - - -
27/09:30am 8.2 WNW 5 8 1026.6 - 0.8 - - - - - - -
27/09:00am 8.2 WNW 5 12 1026.3 - 13.8 - - - - - - -
27/08:30am 7.7 WNW 4 8 1026.0 - 13.8 - - - - - - -

Other Formats:

Comma delimited format used in spreadsheet applications
http://www.bom.gov.au/fwo/IDV60701/IDV60701.94892.axf

JavaScript Object Notation format (JSON) in row-major order
http://www.bom.gov.au/fwo/IDV60701/IDV60701.94892.json